createdAt,value
2018-12-20T00:00:16.071Z,92.70
2018-12-20T00:02:44.285Z,92.80
2018-12-20T00:05:12.443Z,92.70
2018-12-20T00:07:40.521Z,93.30
2018-12-20T00:10:08.841Z,93.50
2018-12-20T00:12:37.033Z,93.70
2018-12-20T00:15:05.523Z,93.00
2018-12-20T00:17:39.377Z,92.80
2018-12-20T00:20:07.529Z,93.10
2018-12-20T00:22:35.597Z,92.80
2018-12-20T00:25:04.270Z,92.80
2018-12-20T00:27:32.332Z,92.70
2018-12-20T00:30:00.310Z,92.80
2018-12-20T00:32:28.329Z,92.70
2018-12-20T00:34:57.010Z,92.70
2018-12-20T00:37:24.914Z,92.70
2018-12-20T00:39:52.960Z,92.80
2018-12-20T00:42:20.935Z,92.50
2018-12-20T00:44:48.927Z,92.40
2018-12-20T00:47:17.028Z,92.30
2018-12-20T00:49:45.033Z,92.50
2018-12-20T00:52:13.072Z,92.60
2018-12-20T00:54:41.101Z,92.50
2018-12-20T00:57:08.940Z,92.40
2018-12-20T00:59:37.044Z,92.40
2018-12-20T01:02:05.638Z,92.40
2018-12-20T01:04:34.801Z,92.30
2018-12-20T01:07:02.954Z,92.70
2018-12-20T01:09:31.039Z,92.50
2018-12-20T01:11:59.016Z,92.40
2018-12-20T01:14:27.106Z,92.40
2018-12-20T01:16:55.061Z,92.40
2018-12-20T01:19:29.885Z,92.30
2018-12-20T01:24:48.059Z,92.30
2018-12-20T01:27:16.038Z,92.40
2018-12-20T01:29:44.174Z,92.50
2018-12-20T01:32:12.159Z,92.40
2018-12-20T01:34:40.198Z,92.30
2018-12-20T01:37:08.091Z,92.50
2018-12-20T01:39:35.982Z,92.30
2018-12-20T01:42:04.093Z,92.20
2018-12-20T01:44:32.104Z,92.20
2018-12-20T01:47:00.185Z,92.40
2018-12-20T01:49:28.162Z,92.40
2018-12-20T01:51:56.003Z,92.40
2018-12-20T01:54:23.902Z,92.30
2018-12-20T01:56:51.904Z,92.30
2018-12-20T01:59:19.718Z,93.30
2018-12-20T02:01:47.844Z,93.10
2018-12-20T02:04:15.804Z,93.10
2018-12-20T02:06:44.004Z,92.90
2018-12-20T02:09:11.969Z,92.70
2018-12-20T02:11:39.844Z,92.80
2018-12-20T02:14:07.771Z,92.70
2018-12-20T02:16:35.809Z,92.70
2018-12-20T02:19:03.889Z,92.60
2018-12-20T02:21:31.736Z,92.50
2018-12-20T02:23:59.811Z,92.50
2018-12-20T02:26:27.782Z,92.50
2018-12-20T02:28:55.761Z,92.40
2018-12-20T02:31:23.823Z,92.40
2018-12-20T02:33:51.816Z,92.30
2018-12-20T02:36:19.740Z,92.20
2018-12-20T02:38:47.576Z,92.10
2018-12-20T02:41:15.388Z,92.10
2018-12-20T02:43:43.281Z,92.10
2018-12-20T02:46:11.240Z,92.10
2018-12-20T02:48:39.094Z,92.10
2018-12-20T02:51:07.116Z,92.40
2018-12-20T02:53:35.320Z,92.20
2018-12-20T02:56:03.485Z,92.30
2018-12-20T02:58:31.994Z,92.40
2018-12-20T03:01:00.128Z,92.60
2018-12-20T03:03:28.278Z,92.60
2018-12-20T03:05:56.459Z,92.40
2018-12-20T03:08:24.461Z,92.20
2018-12-20T03:10:52.438Z,92.30
2018-12-20T03:13:20.450Z,92.30
2018-12-20T03:15:48.432Z,92.20
2018-12-20T03:18:16.252Z,92.30
2018-12-20T03:20:44.344Z,92.30
2018-12-20T03:23:12.130Z,92.20
2018-12-20T03:25:39.979Z,92.40
2018-12-20T03:28:07.937Z,92.40
2018-12-20T03:30:36.033Z,92.40
2018-12-20T03:33:04.289Z,92.10
2018-12-20T03:35:32.150Z,92.10
2018-12-20T03:37:59.952Z,92.00
2018-12-20T03:40:28.004Z,92.10
2018-12-20T03:42:56.231Z,91.90
2018-12-20T03:45:28.609Z,91.90
2018-12-20T03:47:54.069Z,92.00
2018-12-20T03:50:22.209Z,92.10
2018-12-20T03:52:50.279Z,92.10
2018-12-20T03:55:18.383Z,92.10
2018-12-20T03:57:46.553Z,92.10
2018-12-20T04:00:14.899Z,92.10
2018-12-20T04:02:43.123Z,92.20
2018-12-20T04:05:11.213Z,92.10
2018-12-20T04:07:39.132Z,92.10
2018-12-20T04:10:07.184Z,92.10
2018-12-20T04:12:35.212Z,92.20
2018-12-20T04:15:04.524Z,92.20
2018-12-20T04:17:32.667Z,92.20
2018-12-20T04:20:00.688Z,92.30
2018-12-20T04:22:28.577Z,92.50
2018-12-20T04:27:39.408Z,92.70
2018-12-20T04:30:07.757Z,93.50
2018-12-20T04:32:35.856Z,93.00
2018-12-20T04:35:05.047Z,92.70
2018-12-20T04:37:33.082Z,92.60
2018-12-20T04:40:00.962Z,92.50
2018-12-20T04:42:28.867Z,92.30
2018-12-20T04:44:56.778Z,92.50
2018-12-20T04:47:25.011Z,92.40
2018-12-20T04:49:53.618Z,92.50
2018-12-20T04:52:21.653Z,92.90
2018-12-20T04:54:49.520Z,92.60
2018-12-20T04:57:17.625Z,92.50
2018-12-20T04:59:45.876Z,92.40
2018-12-20T05:02:14.067Z,92.40
2018-12-20T05:04:42.412Z,92.40
2018-12-20T05:07:10.595Z,92.30
2018-12-20T05:09:38.557Z,92.30
2018-12-20T05:12:06.705Z,92.30
2018-12-20T05:14:34.524Z,92.30
2018-12-20T05:17:02.567Z,92.20
2018-12-20T05:19:33.025Z,92.20
2018-12-20T05:22:02.149Z,92.20
2018-12-20T05:24:29.948Z,92.30
2018-12-20T05:26:58.015Z,92.20
2018-12-20T05:29:26.312Z,92.30
2018-12-20T05:31:54.458Z,92.20
2018-12-20T05:34:25.453Z,92.90
2018-12-20T05:36:53.351Z,92.50
2018-12-20T05:39:21.338Z,92.30
2018-12-20T05:41:49.254Z,92.30
2018-12-20T05:44:17.280Z,92.20
2018-12-20T05:46:45.157Z,92.10
2018-12-20T05:49:13.270Z,92.10
2018-12-20T05:51:41.367Z,92.00
2018-12-20T05:54:09.294Z,92.10
2018-12-20T05:56:38.596Z,92.30
2018-12-20T05:59:06.957Z,92.30
2018-12-20T06:01:35.048Z,92.30
2018-12-20T06:04:03.337Z,92.20
2018-12-20T06:06:31.206Z,92.20
2018-12-20T06:08:59.125Z,92.20
2018-12-20T06:11:27.301Z,92.10
2018-12-20T06:13:55.366Z,92.00
2018-12-20T06:16:23.651Z,91.90
2018-12-20T06:18:51.738Z,91.80
2018-12-20T06:21:20.151Z,91.80
2018-12-20T06:23:48.232Z,91.90
2018-12-20T06:26:16.095Z,91.70
2018-12-20T06:28:44.497Z,91.70
2018-12-20T06:31:12.390Z,91.70
2018-12-20T06:33:40.313Z,91.60
2018-12-20T06:36:08.128Z,91.60
2018-12-20T06:38:36.113Z,91.50
2018-12-20T06:41:03.976Z,91.50
2018-12-20T06:43:31.798Z,91.50
2018-12-20T06:45:59.786Z,91.50
2018-12-20T06:48:27.581Z,91.50
2018-12-20T06:50:55.364Z,91.40
2018-12-20T06:53:23.424Z,91.70
2018-12-20T06:55:51.256Z,91.30
2018-12-20T06:58:19.227Z,91.70
2018-12-20T07:00:47.126Z,91.50
2018-12-20T07:03:14.940Z,91.70
2018-12-20T07:05:42.841Z,91.40
2018-12-20T07:08:10.765Z,91.50
2018-12-20T07:10:38.536Z,91.50
2018-12-20T07:13:06.490Z,91.60
2018-12-20T07:15:34.492Z,91.60
2018-12-20T07:18:02.276Z,91.60
2018-12-20T07:20:30.155Z,91.60
2018-12-20T07:22:58.029Z,91.50
2018-12-20T07:25:26.057Z,91.90
2018-12-20T07:27:53.840Z,91.60
2018-12-20T07:30:21.745Z,91.40
2018-12-20T07:32:49.552Z,91.30
2018-12-20T07:35:17.371Z,91.80
2018-12-20T07:37:52.350Z,91.70
2018-12-20T07:40:20.365Z,91.30
2018-12-20T07:42:48.178Z,91.80
2018-12-20T07:45:16.029Z,91.30
2018-12-20T07:47:44.013Z,91.50
2018-12-20T07:50:11.978Z,91.20
2018-12-20T07:52:39.854Z,91.20
2018-12-20T07:55:07.991Z,91.40
2018-12-20T07:57:36.035Z,91.50
2018-12-20T08:00:04.871Z,91.10
2018-12-20T08:02:34.293Z,91.40
2018-12-20T08:05:02.353Z,90.90
2018-12-20T08:07:30.318Z,90.90
2018-12-20T08:09:58.226Z,90.90
2018-12-20T08:12:25.993Z,91.00
2018-12-20T08:14:53.866Z,90.90
2018-12-20T08:17:21.729Z,91.50
2018-12-20T08:19:49.563Z,91.10
2018-12-20T08:22:17.391Z,90.90
2018-12-20T08:24:45.154Z,90.70
2018-12-20T08:27:12.944Z,91.30
2018-12-20T08:29:43.181Z,91.00
2018-12-20T08:32:10.956Z,90.80
2018-12-20T08:34:38.873Z,90.70
2018-12-20T08:37:06.660Z,90.60
2018-12-20T08:39:34.560Z,90.50
2018-12-20T08:42:02.617Z,90.40
2018-12-20T08:44:30.609Z,90.50
2018-12-20T08:46:58.621Z,90.30
2018-12-20T08:49:27.028Z,90.30
2018-12-20T08:51:54.854Z,90.20
2018-12-20T08:54:22.688Z,90.00
2018-12-20T08:56:50.480Z,90.20
2018-12-20T08:59:18.248Z,90.20
2018-12-20T09:01:46.111Z,90.20
2018-12-20T09:04:13.897Z,90.10
2018-12-20T09:06:41.825Z,89.80
2018-12-20T09:09:09.773Z,89.50
2018-12-20T09:11:37.650Z,89.20
2018-12-20T09:14:05.800Z,89.10
2018-12-20T09:16:33.586Z,89.30
2018-12-20T09:19:08.818Z,89.90
2018-12-20T09:21:36.733Z,89.60
2018-12-20T09:24:04.813Z,89.60
2018-12-20T09:26:32.599Z,89.70
2018-12-20T09:29:00.520Z,89.90
2018-12-20T09:31:28.307Z,89.90
2018-12-20T09:33:57.273Z,90.30
2018-12-20T09:36:25.216Z,90.30
2018-12-20T09:38:54.052Z,90.60
2018-12-20T09:41:21.842Z,90.40
2018-12-20T09:43:49.890Z,90.30
2018-12-20T09:46:17.795Z,90.10
2018-12-20T09:48:46.421Z,90.00
2018-12-20T09:51:14.496Z,90.10
2018-12-20T09:53:42.444Z,89.80
2018-12-20T09:56:10.843Z,89.90
2018-12-20T09:58:38.820Z,89.50
2018-12-20T10:01:06.621Z,89.40
2018-12-20T10:03:34.524Z,89.30
2018-12-20T10:06:02.528Z,88.90
2018-12-20T10:08:30.425Z,88.20
2018-12-20T10:10:58.442Z,88.30
2018-12-20T10:13:26.315Z,88.70
2018-12-20T10:15:54.253Z,89.90
2018-12-20T10:18:22.089Z,90.10
2018-12-20T10:20:50.098Z,90.00
2018-12-20T10:23:18.028Z,90.00
2018-12-20T10:25:45.925Z,89.30
2018-12-20T10:28:14.222Z,90.40
2018-12-20T10:30:42.469Z,91.40
2018-12-20T10:33:10.245Z,90.00
2018-12-20T10:35:38.057Z,90.30
2018-12-20T10:38:05.955Z,89.60
2018-12-20T10:40:33.829Z,88.90
2018-12-20T10:43:02.694Z,87.50
2018-12-20T10:45:30.485Z,86.70
2018-12-20T10:47:58.424Z,85.90
2018-12-20T10:50:26.266Z,85.40
2018-12-20T10:52:54.180Z,84.40
2018-12-20T10:55:22.028Z,83.00
2018-12-20T10:57:49.908Z,82.40
2018-12-20T11:00:17.921Z,81.10
2018-12-20T11:02:51.940Z,79.90
2018-12-20T11:05:24.799Z,79.30
2018-12-20T11:07:58.928Z,80.20
2018-12-20T11:10:28.136Z,80.20
2018-12-20T11:12:56.376Z,81.40
2018-12-20T11:15:24.776Z,80.80
2018-12-20T11:17:52.523Z,80.60
2018-12-20T11:20:21.368Z,81.00
2018-12-20T11:22:49.680Z,81.40
2018-12-20T11:25:17.646Z,81.80
2018-12-20T11:27:45.706Z,81.80
2018-12-20T11:30:13.754Z,82.50
2018-12-20T11:32:42.766Z,83.20
2018-12-20T11:35:10.543Z,83.40
2018-12-20T11:37:38.316Z,83.40
2018-12-20T11:40:07.844Z,83.30
2018-12-20T11:42:36.168Z,83.60
2018-12-20T11:45:05.048Z,84.10
2018-12-20T11:47:32.847Z,84.30
2018-12-20T11:50:00.744Z,84.40
2018-12-20T11:52:28.621Z,84.40
2018-12-20T11:54:56.586Z,84.00
2018-12-20T11:57:27.889Z,83.50
2018-12-20T11:59:55.815Z,83.10
2018-12-20T12:02:24.622Z,83.30
2018-12-20T12:04:52.817Z,83.20
2018-12-20T12:07:20.704Z,83.60
2018-12-20T12:09:48.553Z,84.10
2018-12-20T12:12:17.492Z,84.20
2018-12-20T12:14:45.469Z,84.50
2018-12-20T12:17:13.456Z,86.00
2018-12-20T12:19:41.294Z,85.70
2018-12-20T12:22:09.207Z,85.70
2018-12-20T12:24:37.020Z,85.60
2018-12-20T12:27:05.166Z,85.60
2018-12-20T12:29:32.968Z,85.60
2018-12-20T12:32:00.993Z,86.00
2018-12-20T12:34:29.781Z,86.20
2018-12-20T12:36:58.082Z,86.10
2018-12-20T12:39:25.997Z,86.10
2018-12-20T12:41:54.037Z,86.20
2018-12-20T12:44:21.856Z,86.20
2018-12-20T12:46:50.474Z,86.20
2018-12-20T12:51:58.722Z,86.60
2018-12-20T12:54:26.780Z,86.50
2018-12-20T12:59:36.336Z,87.40
2018-12-20T13:02:04.493Z,87.90
2018-12-20T13:04:32.436Z,87.50
2018-12-20T13:07:00.480Z,87.50
2018-12-20T13:09:28.820Z,87.30
2018-12-20T13:11:56.660Z,87.10
2018-12-20T13:14:24.983Z,87.20
2018-12-20T13:16:52.844Z,87.20
2018-12-20T13:19:21.125Z,87.00
2018-12-20T13:21:49.442Z,86.90
2018-12-20T13:24:17.321Z,86.90
2018-12-20T13:29:41.475Z,88.00
2018-12-20T13:32:09.360Z,87.10
2018-12-20T13:34:37.384Z,87.20
2018-12-20T13:37:05.389Z,87.20
2018-12-20T13:39:33.729Z,87.40
2018-12-20T13:42:03.788Z,87.40
2018-12-20T13:44:32.258Z,87.50
2018-12-20T13:47:00.504Z,88.00
2018-12-20T13:49:28.292Z,88.00
2018-12-20T13:51:56.535Z,88.20
2018-12-20T13:54:25.288Z,88.40
2018-12-20T13:56:53.849Z,88.90
2018-12-20T13:59:22.382Z,88.90
2018-12-20T14:01:50.581Z,89.00
2018-12-20T14:04:18.497Z,89.20
2018-12-20T14:06:46.300Z,89.30
2018-12-20T14:09:14.470Z,89.50
2018-12-20T14:11:42.452Z,89.70
2018-12-20T14:14:10.924Z,90.00
2018-12-20T14:16:38.966Z,90.00
2018-12-20T14:19:06.858Z,90.10
2018-12-20T14:21:34.658Z,90.20
2018-12-20T14:24:02.822Z,90.20
2018-12-20T14:26:30.855Z,90.10
2018-12-20T14:29:01.628Z,90.20
2018-12-20T14:31:30.619Z,90.20
2018-12-20T14:33:58.413Z,90.20
2018-12-20T14:36:26.318Z,90.20
2018-12-20T14:38:54.104Z,90.20
2018-12-20T14:41:22.184Z,90.20
2018-12-20T14:43:50.280Z,90.20
2018-12-20T14:46:18.731Z,90.30
2018-12-20T14:48:46.854Z,90.30
2018-12-20T14:51:14.654Z,90.30
2018-12-20T14:53:42.477Z,90.30
2018-12-20T14:56:10.609Z,90.40
2018-12-20T14:58:38.501Z,90.50
2018-12-20T15:01:06.533Z,90.50
2018-12-20T15:03:34.358Z,90.90
2018-12-20T15:06:05.303Z,90.60
2018-12-20T15:08:33.276Z,90.70
2018-12-20T15:11:01.301Z,90.90
2018-12-20T15:13:29.322Z,91.00
2018-12-20T15:15:57.397Z,91.00
2018-12-20T15:18:25.290Z,91.00
2018-12-20T15:20:53.254Z,91.20
2018-12-20T15:23:21.218Z,91.10
2018-12-20T15:25:49.705Z,91.00
2018-12-20T15:28:19.609Z,91.00
2018-12-20T15:33:28.786Z,91.10
2018-12-20T15:35:58.093Z,91.10
2018-12-20T15:38:26.960Z,91.10
2018-12-20T15:40:55.466Z,91.10
2018-12-20T15:43:23.526Z,91.10
2018-12-20T15:45:51.508Z,91.10
2018-12-20T15:48:19.544Z,91.10
2018-12-20T15:50:47.377Z,91.10
2018-12-20T15:53:15.185Z,91.10
2018-12-20T15:55:43.062Z,91.10
2018-12-20T15:58:11.100Z,91.10
2018-12-20T16:00:39.005Z,91.10
2018-12-20T16:03:07.131Z,91.20
2018-12-20T16:05:35.082Z,91.20
2018-12-20T16:08:06.172Z,91.20
2018-12-20T16:10:36.191Z,91.30
2018-12-20T16:13:05.290Z,91.30
2018-12-20T16:15:53.912Z,91.20
2018-12-20T16:18:29.080Z,91.30
2018-12-20T16:21:13.339Z,91.30
2018-12-20T16:23:41.594Z,91.40
2018-12-20T16:26:16.237Z,91.40
2018-12-20T16:28:44.534Z,91.40
2018-12-20T16:31:12.374Z,91.30
2018-12-20T16:33:41.447Z,91.40
2018-12-20T16:36:09.328Z,91.30
2018-12-20T16:38:37.227Z,91.40
2018-12-20T16:41:05.453Z,91.40
2018-12-20T16:43:33.462Z,91.50
2018-12-20T16:46:01.721Z,91.60
2018-12-20T16:48:29.730Z,91.50
2018-12-20T16:50:57.709Z,91.50
2018-12-20T16:53:56.269Z,91.50
2018-12-20T16:58:44.994Z,91.50
2018-12-20T17:01:14.852Z,91.40
2018-12-20T17:03:42.870Z,91.40
2018-12-20T17:06:11.108Z,91.30
2018-12-20T17:08:47.770Z,91.30
2018-12-20T17:11:09.374Z,91.30
2018-12-20T17:13:37.401Z,91.30
2018-12-20T17:16:05.400Z,91.30
2018-12-20T17:18:33.240Z,91.30
2018-12-20T17:21:01.213Z,91.40
2018-12-20T17:23:35.563Z,91.40
2018-12-20T17:25:59.560Z,91.40
2018-12-20T17:28:27.485Z,91.50
2018-12-20T17:30:55.472Z,91.50
2018-12-20T17:33:23.472Z,91.50
2018-12-20T17:35:51.432Z,91.40
2018-12-20T17:38:19.565Z,91.30
2018-12-20T17:40:47.613Z,91.20
2018-12-20T17:43:15.505Z,91.20
2018-12-20T17:45:43.445Z,91.10
2018-12-20T17:48:11.266Z,91.20
2018-12-20T17:50:39.164Z,91.30
2018-12-20T17:53:08.273Z,91.30
2018-12-20T17:55:44.526Z,91.20
2018-12-20T17:58:06.101Z,91.10
2018-12-20T18:00:34.475Z,91.10
2018-12-20T18:03:02.457Z,91.10
2018-12-20T18:05:30.500Z,91.00
2018-12-20T18:07:58.391Z,91.00
2018-12-20T18:10:26.255Z,91.00
2018-12-20T18:12:54.283Z,91.00
2018-12-20T18:15:22.165Z,91.10
2018-12-20T18:17:50.120Z,91.00
2018-12-20T18:20:18.178Z,91.00
2018-12-20T18:22:46.324Z,91.10
2018-12-20T18:25:14.367Z,91.10
2018-12-20T18:27:42.554Z,91.10
2018-12-20T18:30:11.628Z,91.20
2018-12-20T18:32:39.881Z,91.20
2018-12-20T18:35:07.986Z,91.10
2018-12-20T18:37:36.008Z,91.10
2018-12-20T18:40:06.201Z,91.20
2018-12-20T18:42:34.379Z,91.20
2018-12-20T18:45:02.350Z,91.30
2018-12-20T18:47:30.549Z,91.60
2018-12-20T18:49:59.578Z,91.30
2018-12-20T18:52:27.732Z,91.30
2018-12-20T18:54:55.656Z,91.30
2018-12-20T18:57:24.112Z,91.40
2018-12-20T18:59:52.114Z,91.50
2018-12-20T19:02:20.080Z,91.40
2018-12-20T19:04:48.512Z,91.40
2018-12-20T19:07:16.447Z,91.40
2018-12-20T19:09:44.285Z,91.40
2018-12-20T19:12:13.642Z,91.30
2018-12-20T19:14:41.891Z,91.40
2018-12-20T19:17:09.893Z,91.40
2018-12-20T19:19:37.872Z,91.50
2018-12-20T19:22:07.094Z,91.50
2018-12-20T19:24:35.225Z,91.60
2018-12-20T19:27:03.207Z,91.60
2018-12-20T19:29:31.006Z,91.50
2018-12-20T19:31:59.136Z,91.50
2018-12-20T19:34:27.360Z,91.60
2018-12-20T19:36:55.774Z,91.50
2018-12-20T19:39:25.920Z,91.30
2018-12-20T19:41:57.184Z,91.30
2018-12-20T19:44:25.237Z,91.30
2018-12-20T19:46:53.105Z,91.20
2018-12-20T19:49:21.008Z,91.10
2018-12-20T19:51:48.977Z,91.10
2018-12-20T19:54:16.992Z,91.20
2018-12-20T19:56:44.980Z,91.00
2018-12-20T19:59:13.037Z,91.00
2018-12-20T20:01:40.988Z,90.90
2018-12-20T20:04:09.072Z,91.10
2018-12-20T20:06:36.991Z,91.10
2018-12-20T20:09:07.084Z,91.10
2018-12-20T20:11:35.495Z,91.20
2018-12-20T20:14:03.819Z,91.30
2018-12-20T20:16:31.776Z,91.10
2018-12-20T20:21:46.191Z,91.30
2018-12-20T20:24:14.325Z,91.30
2018-12-20T20:26:42.292Z,91.40
2018-12-20T20:29:10.453Z,91.40
2018-12-20T20:31:38.380Z,91.50
2018-12-20T20:34:12.583Z,91.30
2018-12-20T20:36:45.510Z,91.30
2018-12-20T20:39:14.101Z,91.30
2018-12-20T20:41:42.897Z,91.30
2018-12-20T20:44:10.843Z,91.30
2018-12-20T20:46:39.170Z,91.30
2018-12-20T20:49:07.253Z,91.30
2018-12-20T20:51:35.204Z,91.30
2018-12-20T20:54:04.991Z,91.40
2018-12-20T20:56:32.951Z,91.40
2018-12-20T20:59:01.133Z,91.40
2018-12-20T21:01:29.076Z,91.40
2018-12-20T21:04:03.374Z,91.50
2018-12-20T21:06:27.045Z,91.50
2018-12-20T21:08:55.788Z,91.50
2018-12-20T21:11:34.448Z,91.50
2018-12-20T21:16:39.350Z,91.40
2018-12-20T21:19:07.489Z,91.40
2018-12-20T21:21:35.573Z,91.40
2018-12-20T21:24:07.298Z,91.50
2018-12-20T21:26:35.384Z,91.50
2018-12-20T21:29:03.597Z,91.50
2018-12-20T21:31:31.696Z,91.50
2018-12-20T21:33:59.717Z,91.50
2018-12-20T21:36:27.838Z,91.50
2018-12-20T21:38:55.833Z,91.50
2018-12-20T21:41:23.811Z,91.50
2018-12-20T21:43:51.736Z,91.60
2018-12-20T21:46:19.792Z,91.60
2018-12-20T21:51:29.231Z,91.60
2018-12-20T21:53:57.431Z,91.60
2018-12-20T21:56:25.356Z,91.70
2018-12-20T21:58:53.432Z,91.70
2018-12-20T22:01:21.406Z,91.70
2018-12-20T22:03:49.377Z,91.70
2018-12-20T22:06:17.544Z,91.70
2018-12-20T22:08:45.748Z,91.80
2018-12-20T22:11:13.822Z,91.80
2018-12-20T22:13:44.699Z,91.80
2018-12-20T22:16:12.605Z,91.80
2018-12-20T22:18:40.611Z,91.80
2018-12-20T22:21:11.662Z,91.80
2018-12-20T22:23:39.701Z,91.70
2018-12-20T22:26:07.628Z,91.80
2018-12-20T22:28:35.741Z,91.80
2018-12-20T22:31:03.734Z,91.80
2018-12-20T22:33:31.775Z,91.90
2018-12-20T22:35:59.790Z,92.00
2018-12-20T22:38:27.721Z,92.00
2018-12-20T22:40:55.565Z,92.10
2018-12-20T22:43:23.441Z,92.10
2018-12-20T22:45:51.272Z,92.10
2018-12-20T22:48:19.224Z,92.30
2018-12-20T22:50:55.757Z,92.30
2018-12-20T22:53:16.998Z,92.20
2018-12-20T22:55:45.986Z,92.10
2018-12-20T22:58:13.806Z,91.90
2018-12-20T23:00:44.114Z,92.00
2018-12-20T23:03:12.400Z,92.00
2018-12-20T23:05:40.400Z,92.10
2018-12-20T23:08:08.218Z,92.10
2018-12-20T23:10:40.188Z,92.10
2018-12-20T23:13:08.103Z,92.00
2018-12-20T23:15:36.185Z,91.90
2018-12-20T23:18:04.092Z,91.90
2018-12-20T23:20:32.185Z,91.80
2018-12-20T23:23:00.060Z,91.80
2018-12-20T23:25:28.234Z,91.80
2018-12-20T23:27:56.249Z,92.00
2018-12-20T23:30:24.131Z,92.00
2018-12-20T23:32:54.949Z,92.00
2018-12-20T23:35:22.815Z,92.10
2018-12-20T23:37:50.824Z,92.20
2018-12-20T23:40:18.818Z,92.20
2018-12-20T23:42:46.763Z,92.30
2018-12-20T23:45:14.729Z,92.30
2018-12-20T23:47:43.109Z,92.30
2018-12-20T23:50:11.312Z,92.30
2018-12-20T23:52:39.684Z,92.50
2018-12-20T23:55:08.164Z,92.10
2018-12-20T23:57:36.108Z,92.00
